sensor_id;sensor_type;location;lat;lon;timestamp;P1;durP1;ratioP1;P2;durP2;ratioP2
51006;SDS011;37034;47.886;-3.904;2022-10-12T00:01:36;10.20;;;2.30;;
51006;SDS011;37034;47.886;-3.904;2022-10-12T00:04:02;7.70;;;2.20;;
51006;SDS011;37034;47.886;-3.904;2022-10-12T00:06:27;9.70;;;2.50;;
51006;SDS011;37034;47.886;-3.904;2022-10-12T00:08:53;12.53;;;2.53;;
51006;SDS011;37034;47.886;-3.904;2022-10-12T00:11:21;8.65;;;2.28;;
51006;SDS011;37034;47.886;-3.904;2022-10-12T00:13:48;10.77;;;2.22;;
51006;SDS011;37034;47.886;-3.904;2022-10-12T00:16:15;15.93;;;3.00;;
51006;SDS011;37034;47.886;-3.904;2022-10-12T00:18:41;11.65;;;2.55;;
51006;SDS011;37034;47.886;-3.904;2022-10-12T00:23:40;10.63;;;3.10;;
51006;SDS011;37034;47.886;-3.904;2022-10-12T00:26:07;10.43;;;2.67;;
51006;SDS011;37034;47.886;-3.904;2022-10-12T00:28:35;10.60;;;2.58;;
51006;SDS011;37034;47.886;-3.904;2022-10-12T00:31:05;10.57;;;2.70;;
51006;SDS011;37034;47.886;-3.904;2022-10-12T00:33:32;10.32;;;2.75;;
51006;SDS011;37034;47.886;-3.904;2022-10-12T00:35:58;7.77;;;2.87;;
51006;SDS011;37034;47.886;-3.904;2022-10-12T00:38:23;10.43;;;2.93;;
51006;SDS011;37034;47.886;-3.904;2022-10-12T00:40:49;17.08;;;3.65;;
51006;SDS011;37034;47.886;-3.904;2022-10-12T00:43:33;10.13;;;3.23;;
51006;SDS011;37034;47.886;-3.904;2022-10-12T00:46:09;11.00;;;3.30;;
51006;SDS011;37034;47.886;-3.904;2022-10-12T00:48:36;13.30;;;3.85;;
51006;SDS011;37034;47.886;-3.904;2022-10-12T00:51:03;15.40;;;3.75;;
51006;SDS011;37034;47.886;-3.904;2022-10-12T00:53:31;14.90;;;3.60;;
51006;SDS011;37034;47.886;-3.904;2022-10-12T00:56:04;11.32;;;2.70;;
51006;SDS011;37034;47.886;-3.904;2022-10-12T00:58:34;11.48;;;3.65;;
51006;SDS011;37034;47.886;-3.904;2022-10-12T01:01:00;11.90;;;2.80;;
51006;SDS011;37034;47.886;-3.904;2022-10-12T01:03:27;11.48;;;2.78;;
51006;SDS011;37034;47.886;-3.904;2022-10-12T01:05:53;17.92;;;3.72;;
51006;SDS011;37034;47.886;-3.904;2022-10-12T01:08:19;11.43;;;3.00;;
51006;SDS011;37034;47.886;-3.904;2022-10-12T01:10:46;13.48;;;2.90;;
51006;SDS011;37034;47.886;-3.904;2022-10-12T01:13:11;13.17;;;2.93;;
51006;SDS011;37034;47.886;-3.904;2022-10-12T01:15:53;10.27;;;2.78;;
51006;SDS011;37034;47.886;-3.904;2022-10-12T01:18:29;11.43;;;2.60;;
51006;SDS011;37034;47.886;-3.904;2022-10-12T01:21:15;10.60;;;2.90;;
51006;SDS011;37034;47.886;-3.904;2022-10-12T01:24:02;10.73;;;2.95;;
51006;SDS011;37034;47.886;-3.904;2022-10-12T01:26:59;8.85;;;2.60;;
51006;SDS011;37034;47.886;-3.904;2022-10-12T01:30:03;9.85;;;2.78;;
51006;SDS011;37034;47.886;-3.904;2022-10-12T01:40:36;13.25;;;3.38;;
51006;SDS011;37034;47.886;-3.904;2022-10-12T01:43:08;10.07;;;3.17;;
51006;SDS011;37034;47.886;-3.904;2022-10-12T01:45:33;11.20;;;2.80;;
51006;SDS011;37034;47.886;-3.904;2022-10-12T01:47:59;10.20;;;2.87;;
51006;SDS011;37034;47.886;-3.904;2022-10-12T01:50:30;10.57;;;2.47;;
51006;SDS011;37034;47.886;-3.904;2022-10-12T01:55:48;11.68;;;2.83;;
51006;SDS011;37034;47.886;-3.904;2022-10-12T01:58:25;13.25;;;2.67;;
51006;SDS011;37034;47.886;-3.904;2022-10-12T02:06:44;7.53;;;2.50;;
51006;SDS011;37034;47.886;-3.904;2022-10-12T02:09:28;11.85;;;2.97;;
51006;SDS011;37034;47.886;-3.904;2022-10-12T02:11:59;9.60;;;2.85;;
51006;SDS011;37034;47.886;-3.904;2022-10-12T02:14:31;10.93;;;2.90;;
51006;SDS011;37034;47.886;-3.904;2022-10-12T02:17:03;11.65;;;3.05;;
51006;SDS011;37034;47.886;-3.904;2022-10-12T02:19:34;10.52;;;2.95;;
51006;SDS011;37034;47.886;-3.904;2022-10-12T02:22:03;10.93;;;2.78;;
51006;SDS011;37034;47.886;-3.904;2022-10-12T02:24:32;13.15;;;2.90;;
51006;SDS011;37034;47.886;-3.904;2022-10-12T02:27:00;10.85;;;3.10;;
51006;SDS011;37034;47.886;-3.904;2022-10-12T02:29:31;12.63;;;3.58;;
51006;SDS011;37034;47.886;-3.904;2022-10-12T02:39:51;11.73;;;2.88;;
51006;SDS011;37034;47.886;-3.904;2022-10-12T02:42:28;12.10;;;3.40;;
51006;SDS011;37034;47.886;-3.904;2022-10-12T02:44:58;10.35;;;2.88;;
51006;SDS011;37034;47.886;-3.904;2022-10-12T02:47:29;9.18;;;2.60;;
51006;SDS011;37034;47.886;-3.904;2022-10-12T02:49:56;8.82;;;2.78;;
51006;SDS011;37034;47.886;-3.904;2022-10-12T02:52:23;11.93;;;3.10;;
51006;SDS011;37034;47.886;-3.904;2022-10-12T02:54:49;10.00;;;2.65;;
51006;SDS011;37034;47.886;-3.904;2022-10-12T02:57:15;7.90;;;2.70;;
51006;SDS011;37034;47.886;-3.904;2022-10-12T02:59:41;12.80;;;3.45;;
51006;SDS011;37034;47.886;-3.904;2022-10-12T03:02:06;10.83;;;3.27;;
51006;SDS011;37034;47.886;-3.904;2022-10-12T03:04:34;9.35;;;3.22;;
51006;SDS011;37034;47.886;-3.904;2022-10-12T03:07:00;11.57;;;3.15;;
51006;SDS011;37034;47.886;-3.904;2022-10-12T03:09:26;13.30;;;3.10;;
51006;SDS011;37034;47.886;-3.904;2022-10-12T03:11:52;8.80;;;3.50;;
51006;SDS011;37034;47.886;-3.904;2022-10-12T03:14:18;15.60;;;3.57;;
51006;SDS011;37034;47.886;-3.904;2022-10-12T03:16:45;10.95;;;3.20;;
51006;SDS011;37034;47.886;-3.904;2022-10-12T03:19:12;13.13;;;3.15;;
51006;SDS011;37034;47.886;-3.904;2022-10-12T03:21:38;10.63;;;3.00;;
51006;SDS011;37034;47.886;-3.904;2022-10-12T03:24:04;8.07;;;2.70;;
51006;SDS011;37034;47.886;-3.904;2022-10-12T03:26:30;11.00;;;3.10;;
51006;SDS011;37034;47.886;-3.904;2022-10-12T03:28:55;12.57;;;3.33;;
51006;SDS011;37034;47.886;-3.904;2022-10-12T03:31:21;11.90;;;2.83;;
51006;SDS011;37034;47.886;-3.904;2022-10-12T03:33:47;9.03;;;2.77;;
51006;SDS011;37034;47.886;-3.904;2022-10-12T03:36:12;10.73;;;3.40;;
51006;SDS011;37034;47.886;-3.904;2022-10-12T03:38:38;10.73;;;2.93;;
51006;SDS011;37034;47.886;-3.904;2022-10-12T03:41:04;11.13;;;2.70;;
51006;SDS011;37034;47.886;-3.904;2022-10-12T03:43:29;9.73;;;3.20;;
51006;SDS011;37034;47.886;-3.904;2022-10-12T03:45:55;10.63;;;3.30;;
51006;SDS011;37034;47.886;-3.904;2022-10-12T03:48:20;10.43;;;3.33;;
51006;SDS011;37034;47.886;-3.904;2022-10-12T03:50:47;6.23;;;3.03;;
51006;SDS011;37034;47.886;-3.904;2022-10-12T03:53:14;10.40;;;2.38;;
51006;SDS011;37034;47.886;-3.904;2022-10-12T03:55:39;12.23;;;2.83;;
51006;SDS011;37034;47.886;-3.904;2022-10-12T03:58:05;13.70;;;2.60;;
51006;SDS011;37034;47.886;-3.904;2022-10-12T04:00:31;7.17;;;2.57;;
51006;SDS011;37034;47.886;-3.904;2022-10-12T04:02:56;10.90;;;2.53;;
51006;SDS011;37034;47.886;-3.904;2022-10-12T04:05:22;8.50;;;2.80;;
51006;SDS011;37034;47.886;-3.904;2022-10-12T04:07:48;5.90;;;2.38;;
51006;SDS011;37034;47.886;-3.904;2022-10-12T04:10:14;10.32;;;3.40;;
51006;SDS011;37034;47.886;-3.904;2022-10-12T04:12:40;13.45;;;4.63;;
51006;SDS011;37034;47.886;-3.904;2022-10-12T04:15:06;18.57;;;4.07;;
51006;SDS011;37034;47.886;-3.904;2022-10-12T04:17:32;12.20;;;3.45;;
51006;SDS011;37034;47.886;-3.904;2022-10-12T04:19:57;14.07;;;3.60;;
51006;SDS011;37034;47.886;-3.904;2022-10-12T04:22:23;9.00;;;3.10;;
51006;SDS011;37034;47.886;-3.904;2022-10-12T04:24:49;8.47;;;3.07;;
51006;SDS011;37034;47.886;-3.904;2022-10-12T04:27:15;13.13;;;3.47;;
51006;SDS011;37034;47.886;-3.904;2022-10-12T04:29:41;8.10;;;2.95;;
51006;SDS011;37034;47.886;-3.904;2022-10-12T04:32:06;12.80;;;3.43;;
51006;SDS011;37034;47.886;-3.904;2022-10-12T04:34:32;8.98;;;3.10;;
51006;SDS011;37034;47.886;-3.904;2022-10-12T04:37:00;7.13;;;3.10;;
51006;SDS011;37034;47.886;-3.904;2022-10-12T04:39:26;12.48;;;3.80;;
51006;SDS011;37034;47.886;-3.904;2022-10-12T04:41:52;8.65;;;3.15;;
51006;SDS011;37034;47.886;-3.904;2022-10-12T04:44:18;10.13;;;3.27;;
51006;SDS011;37034;47.886;-3.904;2022-10-12T04:46:43;10.17;;;3.17;;
51006;SDS011;37034;47.886;-3.904;2022-10-12T04:49:09;7.77;;;2.73;;
51006;SDS011;37034;47.886;-3.904;2022-10-12T04:51:35;16.03;;;3.77;;
51006;SDS011;37034;47.886;-3.904;2022-10-12T04:54:00;9.70;;;3.07;;
51006;SDS011;37034;47.886;-3.904;2022-10-12T04:56:26;10.65;;;3.78;;
51006;SDS011;37034;47.886;-3.904;2022-10-12T04:58:52;12.50;;;3.40;;
51006;SDS011;37034;47.886;-3.904;2022-10-12T05:01:17;8.17;;;3.43;;
51006;SDS011;37034;47.886;-3.904;2022-10-12T05:03:43;10.13;;;3.27;;
51006;SDS011;37034;47.886;-3.904;2022-10-12T05:06:09;12.53;;;2.90;;
51006;SDS011;37034;47.886;-3.904;2022-10-12T05:08:34;7.83;;;3.07;;
51006;SDS011;37034;47.886;-3.904;2022-10-12T05:11:00;9.47;;;2.90;;
51006;SDS011;37034;47.886;-3.904;2022-10-12T05:13:26;9.43;;;2.60;;
51006;SDS011;37034;47.886;-3.904;2022-10-12T05:15:52;9.38;;;2.28;;
51006;SDS011;37034;47.886;-3.904;2022-10-12T05:18:18;13.33;;;3.00;;
51006;SDS011;37034;47.886;-3.904;2022-10-12T05:20:44;14.47;;;3.03;;
51006;SDS011;37034;47.886;-3.904;2022-10-12T05:23:10;8.25;;;2.42;;
51006;SDS011;37034;47.886;-3.904;2022-10-12T05:25:36;8.38;;;2.30;;
51006;SDS011;37034;47.886;-3.904;2022-10-12T05:28:01;13.23;;;3.10;;
51006;SDS011;37034;47.886;-3.904;2022-10-12T05:30:28;9.95;;;2.30;;
51006;SDS011;37034;47.886;-3.904;2022-10-12T05:32:54;13.70;;;2.78;;
51006;SDS011;37034;47.886;-3.904;2022-10-12T05:35:20;11.93;;;3.50;;
51006;SDS011;37034;47.886;-3.904;2022-10-12T05:37:46;10.73;;;3.15;;
51006;SDS011;37034;47.886;-3.904;2022-10-12T05:40:12;10.17;;;2.60;;
51006;SDS011;37034;47.886;-3.904;2022-10-12T05:42:37;10.13;;;2.57;;
51006;SDS011;37034;47.886;-3.904;2022-10-12T05:45:03;12.80;;;2.17;;
51006;SDS011;37034;47.886;-3.904;2022-10-12T05:47:29;9.48;;;2.42;;
51006;SDS011;37034;47.886;-3.904;2022-10-12T05:49:55;8.93;;;2.70;;
51006;SDS011;37034;47.886;-3.904;2022-10-12T05:52:21;13.93;;;3.00;;
51006;SDS011;37034;47.886;-3.904;2022-10-12T05:54:46;13.27;;;2.87;;
51006;SDS011;37034;47.886;-3.904;2022-10-12T05:57:12;12.17;;;2.80;;
51006;SDS011;37034;47.886;-3.904;2022-10-12T05:59:39;11.20;;;2.85;;
51006;SDS011;37034;47.886;-3.904;2022-10-12T06:02:06;17.65;;;2.78;;
51006;SDS011;37034;47.886;-3.904;2022-10-12T06:04:32;10.32;;;2.72;;
51006;SDS011;37034;47.886;-3.904;2022-10-12T06:06:57;9.70;;;2.30;;
51006;SDS011;37034;47.886;-3.904;2022-10-12T06:09:23;18.00;;;2.93;;
51006;SDS011;37034;47.886;-3.904;2022-10-12T06:11:49;10.20;;;2.47;;
51006;SDS011;37034;47.886;-3.904;2022-10-12T06:14:14;12.37;;;2.90;;
51006;SDS011;37034;47.886;-3.904;2022-10-12T06:16:40;10.02;;;2.60;;
51006;SDS011;37034;47.886;-3.904;2022-10-12T06:19:06;13.20;;;3.60;;
51006;SDS011;37034;47.886;-3.904;2022-10-12T06:21:34;13.90;;;2.80;;
51006;SDS011;37034;47.886;-3.904;2022-10-12T06:24:00;9.53;;;2.40;;
51006;SDS011;37034;47.886;-3.904;2022-10-12T06:26:25;10.77;;;2.97;;
51006;SDS011;37034;47.886;-3.904;2022-10-12T06:28:51;14.53;;;2.90;;
51006;SDS011;37034;47.886;-3.904;2022-10-12T06:31:17;15.43;;;2.87;;
51006;SDS011;37034;47.886;-3.904;2022-10-12T06:33:42;9.10;;;2.63;;
51006;SDS011;37034;47.886;-3.904;2022-10-12T06:36:08;13.37;;;2.70;;
51006;SDS011;37034;47.886;-3.904;2022-10-12T06:38:34;18.13;;;2.80;;
51006;SDS011;37034;47.886;-3.904;2022-10-12T06:40:59;7.77;;;2.47;;
51006;SDS011;37034;47.886;-3.904;2022-10-12T06:43:25;10.50;;;2.33;;
51006;SDS011;37034;47.886;-3.904;2022-10-12T06:45:52;12.60;;;2.83;;
51006;SDS011;37034;47.886;-3.904;2022-10-12T06:48:17;13.93;;;3.17;;
51006;SDS011;37034;47.886;-3.904;2022-10-12T06:50:43;17.30;;;2.88;;
51006;SDS011;37034;47.886;-3.904;2022-10-12T06:53:10;12.88;;;3.40;;
51006;SDS011;37034;47.886;-3.904;2022-10-12T06:55:38;13.23;;;2.43;;
51006;SDS011;37034;47.886;-3.904;2022-10-12T06:58:04;14.95;;;3.20;;
51006;SDS011;37034;47.886;-3.904;2022-10-12T07:00:29;11.03;;;2.90;;
51006;SDS011;37034;47.886;-3.904;2022-10-12T07:02:55;12.60;;;2.63;;
51006;SDS011;37034;47.886;-3.904;2022-10-12T07:05:21;13.20;;;2.53;;
51006;SDS011;37034;47.886;-3.904;2022-10-12T07:07:48;10.15;;;2.20;;
51006;SDS011;37034;47.886;-3.904;2022-10-12T07:10:13;8.70;;;2.33;;
51006;SDS011;37034;47.886;-3.904;2022-10-12T07:12:39;13.70;;;3.13;;
51006;SDS011;37034;47.886;-3.904;2022-10-12T07:15:05;9.90;;;1.93;;
51006;SDS011;37034;47.886;-3.904;2022-10-12T07:17:31;16.10;;;2.72;;
51006;SDS011;37034;47.886;-3.904;2022-10-12T07:19:57;11.63;;;2.13;;
51006;SDS011;37034;47.886;-3.904;2022-10-12T07:22:23;9.70;;;2.50;;
51006;SDS011;37034;47.886;-3.904;2022-10-12T07:24:48;8.50;;;2.10;;
51006;SDS011;37034;47.886;-3.904;2022-10-12T07:27:14;14.20;;;2.67;;
51006;SDS011;37034;47.886;-3.904;2022-10-12T07:29:40;19.33;;;3.47;;
51006;SDS011;37034;47.886;-3.904;2022-10-12T07:32:05;16.17;;;3.37;;
51006;SDS011;37034;47.886;-3.904;2022-10-12T07:34:32;13.70;;;3.00;;
51006;SDS011;37034;47.886;-3.904;2022-10-12T07:36:58;18.23;;;3.38;;
51006;SDS011;37034;47.886;-3.904;2022-10-12T07:39:24;19.83;;;3.58;;
51006;SDS011;37034;47.886;-3.904;2022-10-12T07:41:50;16.57;;;3.57;;
51006;SDS011;37034;47.886;-3.904;2022-10-12T07:44:16;13.07;;;3.50;;
51006;SDS011;37034;47.886;-3.904;2022-10-12T07:46:43;22.40;;;3.13;;
51006;SDS011;37034;47.886;-3.904;2022-10-12T07:49:13;19.45;;;3.75;;
51006;SDS011;37034;47.886;-3.904;2022-10-12T07:51:39;15.95;;;3.63;;
51006;SDS011;37034;47.886;-3.904;2022-10-12T07:54:06;20.58;;;3.85;;
51006;SDS011;37034;47.886;-3.904;2022-10-12T07:56:32;14.02;;;2.90;;
51006;SDS011;37034;47.886;-3.904;2022-10-12T07:58:58;17.17;;;3.33;;
51006;SDS011;37034;47.886;-3.904;2022-10-12T08:01:26;16.27;;;3.42;;
51006;SDS011;37034;47.886;-3.904;2022-10-12T08:03:56;18.02;;;3.25;;
51006;SDS011;37034;47.886;-3.904;2022-10-12T08:06:24;18.00;;;2.90;;
51006;SDS011;37034;47.886;-3.904;2022-10-12T08:08:51;16.73;;;3.20;;
51006;SDS011;37034;47.886;-3.904;2022-10-12T08:11:17;18.05;;;3.00;;
51006;SDS011;37034;47.886;-3.904;2022-10-12T08:13:44;18.67;;;2.47;;
51006;SDS011;37034;47.886;-3.904;2022-10-12T08:16:11;10.00;;;2.00;;
51006;SDS011;37034;47.886;-3.904;2022-10-12T08:18:42;13.82;;;2.33;;
51006;SDS011;37034;47.886;-3.904;2022-10-12T08:21:09;16.20;;;2.97;;
51006;SDS011;37034;47.886;-3.904;2022-10-12T08:23:35;16.63;;;3.15;;
51006;SDS011;37034;47.886;-3.904;2022-10-12T08:26:02;19.45;;;2.63;;
51006;SDS011;37034;47.886;-3.904;2022-10-12T08:28:28;11.23;;;2.60;;
51006;SDS011;37034;47.886;-3.904;2022-10-12T08:30:54;14.50;;;2.53;;
51006;SDS011;37034;47.886;-3.904;2022-10-12T08:33:20;14.40;;;2.85;;
51006;SDS011;37034;47.886;-3.904;2022-10-12T08:35:46;17.00;;;3.42;;
51006;SDS011;37034;47.886;-3.904;2022-10-12T08:38:13;22.50;;;3.85;;
51006;SDS011;37034;47.886;-3.904;2022-10-12T08:43:21;16.25;;;3.35;;
51006;SDS011;37034;47.886;-3.904;2022-10-12T08:45:58;13.25;;;3.05;;
51006;SDS011;37034;47.886;-3.904;2022-10-12T08:48:31;18.83;;;3.78;;
51006;SDS011;37034;47.886;-3.904;2022-10-12T08:51:06;14.98;;;3.28;;
51006;SDS011;37034;47.886;-3.904;2022-10-12T08:53:44;17.67;;;2.42;;
51006;SDS011;37034;47.886;-3.904;2022-10-12T08:56:23;13.23;;;3.20;;
51006;SDS011;37034;47.886;-3.904;2022-10-12T08:58:49;16.97;;;2.53;;
51006;SDS011;37034;47.886;-3.904;2022-10-12T09:04:15;10.25;;;1.83;;
51006;SDS011;37034;47.886;-3.904;2022-10-12T09:07:10;13.75;;;2.35;;
51006;SDS011;37034;47.886;-3.904;2022-10-12T09:15:43;16.98;;;2.85;;
51006;SDS011;37034;47.886;-3.904;2022-10-12T09:18:14;16.77;;;3.13;;
51006;SDS011;37034;47.886;-3.904;2022-10-12T09:20:56;10.85;;;2.00;;
51006;SDS011;37034;47.886;-3.904;2022-10-12T09:23:25;15.93;;;2.38;;
51006;SDS011;37034;47.886;-3.904;2022-10-12T09:25:54;13.55;;;2.25;;
51006;SDS011;37034;47.886;-3.904;2022-10-12T09:28:29;13.80;;;1.95;;
51006;SDS011;37034;47.886;-3.904;2022-10-12T09:33:27;12.43;;;2.17;;
51006;SDS011;37034;47.886;-3.904;2022-10-12T09:36:04;12.13;;;1.95;;
51006;SDS011;37034;47.886;-3.904;2022-10-12T09:38:31;17.88;;;3.22;;
51006;SDS011;37034;47.886;-3.904;2022-10-12T09:40:56;14.98;;;2.30;;
51006;SDS011;37034;47.886;-3.904;2022-10-12T09:43:22;11.60;;;2.57;;
51006;SDS011;37034;47.886;-3.904;2022-10-12T09:45:48;15.73;;;2.25;;
51006;SDS011;37034;47.886;-3.904;2022-10-12T09:50:51;16.02;;;2.80;;
51006;SDS011;37034;47.886;-3.904;2022-10-12T09:56:06;13.70;;;2.33;;
51006;SDS011;37034;47.886;-3.904;2022-10-12T09:59:16;15.35;;;1.90;;
51006;SDS011;37034;47.886;-3.904;2022-10-12T10:06:37;9.73;;;2.10;;
51006;SDS011;37034;47.886;-3.904;2022-10-12T10:09:05;11.93;;;1.75;;
51006;SDS011;37034;47.886;-3.904;2022-10-12T10:11:38;11.32;;;1.67;;
51006;SDS011;37034;47.886;-3.904;2022-10-12T10:14:04;9.65;;;1.60;;
51006;SDS011;37034;47.886;-3.904;2022-10-12T10:16:30;8.68;;;1.55;;
51006;SDS011;37034;47.886;-3.904;2022-10-12T10:18:57;8.88;;;1.80;;
51006;SDS011;37034;47.886;-3.904;2022-10-12T10:21:31;10.75;;;2.10;;
51006;SDS011;37034;47.886;-3.904;2022-10-12T10:26:27;8.23;;;1.90;;
51006;SDS011;37034;47.886;-3.904;2022-10-12T10:29:15;10.07;;;1.98;;
51006;SDS011;37034;47.886;-3.904;2022-10-12T10:35:26;10.00;;;1.50;;
51006;SDS011;37034;47.886;-3.904;2022-10-12T10:40:28;9.40;;;1.55;;
51006;SDS011;37034;47.886;-3.904;2022-10-12T10:43:04;10.05;;;1.20;;
51006;SDS011;37034;47.886;-3.904;2022-10-12T10:45:46;11.40;;;1.70;;
51006;SDS011;37034;47.886;-3.904;2022-10-12T10:48:27;6.78;;;1.20;;
51006;SDS011;37034;47.886;-3.904;2022-10-12T10:51:02;10.00;;;1.80;;
51006;SDS011;37034;47.886;-3.904;2022-10-12T10:53:30;10.35;;;1.50;;
51006;SDS011;37034;47.886;-3.904;2022-10-12T10:56:13;7.10;;;1.10;;
51006;SDS011;37034;47.886;-3.904;2022-10-12T10:58:51;11.55;;;1.50;;
51006;SDS011;37034;47.886;-3.904;2022-10-12T11:04:26;10.25;;;1.55;;
51006;SDS011;37034;47.886;-3.904;2022-10-12T11:06:58;9.30;;;1.55;;
51006;SDS011;37034;47.886;-3.904;2022-10-12T11:09:37;10.32;;;2.00;;
51006;SDS011;37034;47.886;-3.904;2022-10-12T11:12:08;10.20;;;1.65;;
51006;SDS011;37034;47.886;-3.904;2022-10-12T11:14:48;6.07;;;1.52;;
51006;SDS011;37034;47.886;-3.904;2022-10-12T11:17:17;10.65;;;1.80;;
51006;SDS011;37034;47.886;-3.904;2022-10-12T11:23:19;8.82;;;1.80;;
51006;SDS011;37034;47.886;-3.904;2022-10-12T11:28:34;9.02;;;1.83;;
51006;SDS011;37034;47.886;-3.904;2022-10-12T11:31:01;12.05;;;2.03;;
51006;SDS011;37034;47.886;-3.904;2022-10-12T11:33:29;8.95;;;1.92;;
51006;SDS011;37034;47.886;-3.904;2022-10-12T11:36:02;7.03;;;1.40;;
51006;SDS011;37034;47.886;-3.904;2022-10-12T11:38:37;8.70;;;1.80;;
51006;SDS011;37034;47.886;-3.904;2022-10-12T11:41:15;13.45;;;1.83;;
51006;SDS011;37034;47.886;-3.904;2022-10-12T11:43:55;11.32;;;2.05;;
51006;SDS011;37034;47.886;-3.904;2022-10-12T11:46:31;10.00;;;2.08;;
51006;SDS011;37034;47.886;-3.904;2022-10-12T11:49:24;9.52;;;1.80;;
51006;SDS011;37034;47.886;-3.904;2022-10-12T11:51:54;9.25;;;1.60;;
51006;SDS011;37034;47.886;-3.904;2022-10-12T11:54:31;9.50;;;2.25;;
51006;SDS011;37034;47.886;-3.904;2022-10-12T11:57:12;10.45;;;2.00;;
51006;SDS011;37034;47.886;-3.904;2022-10-12T12:02:11;11.32;;;2.00;;
51006;SDS011;37034;47.886;-3.904;2022-10-12T12:04:44;13.40;;;2.72;;
51006;SDS011;37034;47.886;-3.904;2022-10-12T12:15:42;10.13;;;1.67;;
51006;SDS011;37034;47.886;-3.904;2022-10-12T12:29:55;10.85;;;1.60;;
51006;SDS011;37034;47.886;-3.904;2022-10-12T12:32:24;8.30;;;1.27;;
51006;SDS011;37034;47.886;-3.904;2022-10-12T12:34:54;7.13;;;1.50;;
51006;SDS011;37034;47.886;-3.904;2022-10-12T12:37:23;14.18;;;2.17;;
51006;SDS011;37034;47.886;-3.904;2022-10-12T12:39:54;9.27;;;1.52;;
51006;SDS011;37034;47.886;-3.904;2022-10-12T12:42:25;11.15;;;1.60;;
51006;SDS011;37034;47.886;-3.904;2022-10-12T12:44:56;6.72;;;1.30;;
51006;SDS011;37034;47.886;-3.904;2022-10-12T12:47:42;7.15;;;1.42;;
51006;SDS011;37034;47.886;-3.904;2022-10-12T12:53:04;11.55;;;1.60;;
51006;SDS011;37034;47.886;-3.904;2022-10-12T12:55:41;11.27;;;1.90;;
51006;SDS011;37034;47.886;-3.904;2022-10-12T12:58:14;6.32;;;1.50;;
51006;SDS011;37034;47.886;-3.904;2022-10-12T13:15:10;8.32;;;1.50;;
51006;SDS011;37034;47.886;-3.904;2022-10-12T13:20:47;9.95;;;1.25;;
51006;SDS011;37034;47.886;-3.904;2022-10-12T13:23:15;10.10;;;1.55;;
51006;SDS011;37034;47.886;-3.904;2022-10-12T13:25:57;6.80;;;1.45;;
51006;SDS011;37034;47.886;-3.904;2022-10-12T13:28:30;11.15;;;1.67;;
51006;SDS011;37034;47.886;-3.904;2022-10-12T13:31:10;9.40;;;1.52;;
51006;SDS011;37034;47.886;-3.904;2022-10-12T13:33:52;9.73;;;1.95;;
51006;SDS011;37034;47.886;-3.904;2022-10-12T13:36:26;8.10;;;1.65;;
51006;SDS011;37034;47.886;-3.904;2022-10-12T13:38:57;9.98;;;2.00;;
51006;SDS011;37034;47.886;-3.904;2022-10-12T13:41:25;13.88;;;1.77;;
51006;SDS011;37034;47.886;-3.904;2022-10-12T13:44:03;9.00;;;1.67;;
51006;SDS011;37034;47.886;-3.904;2022-10-12T13:46:39;9.48;;;1.92;;
51006;SDS011;37034;47.886;-3.904;2022-10-12T13:51:41;8.02;;;1.58;;
51006;SDS011;37034;47.886;-3.904;2022-10-12T13:56:47;12.77;;;1.90;;
51006;SDS011;37034;47.886;-3.904;2022-10-12T13:59:17;11.30;;;1.95;;
51006;SDS011;37034;47.886;-3.904;2022-10-12T14:01:53;8.55;;;1.80;;
51006;SDS011;37034;47.886;-3.904;2022-10-12T14:04:30;10.93;;;2.05;;
51006;SDS011;37034;47.886;-3.904;2022-10-12T14:09:39;8.55;;;1.88;;
51006;SDS011;37034;47.886;-3.904;2022-10-12T14:12:08;9.68;;;1.52;;
51006;SDS011;37034;47.886;-3.904;2022-10-12T14:14:35;13.75;;;2.47;;
51006;SDS011;37034;47.886;-3.904;2022-10-12T14:17:02;8.43;;;1.58;;
51006;SDS011;37034;47.886;-3.904;2022-10-12T14:19:30;6.75;;;1.33;;
51006;SDS011;37034;47.886;-3.904;2022-10-12T14:22:32;7.53;;;1.48;;
51006;SDS011;37034;47.886;-3.904;2022-10-12T14:25:10;13.52;;;2.00;;
51006;SDS011;37034;47.886;-3.904;2022-10-12T14:27:43;8.85;;;1.88;;
51006;SDS011;37034;47.886;-3.904;2022-10-12T14:30:22;9.88;;;1.63;;
51006;SDS011;37034;47.886;-3.904;2022-10-12T14:32:52;8.93;;;1.70;;
51006;SDS011;37034;47.886;-3.904;2022-10-12T14:35:28;10.13;;;1.60;;
51006;SDS011;37034;47.886;-3.904;2022-10-12T14:37:55;12.68;;;1.77;;
51006;SDS011;37034;47.886;-3.904;2022-10-12T14:42:59;11.38;;;1.75;;
51006;SDS011;37034;47.886;-3.904;2022-10-12T14:45:27;6.57;;;1.30;;
51006;SDS011;37034;47.886;-3.904;2022-10-12T14:47:54;9.65;;;1.75;;
51006;SDS011;37034;47.886;-3.904;2022-10-12T14:50:21;7.45;;;1.70;;
51006;SDS011;37034;47.886;-3.904;2022-10-12T14:52:51;11.20;;;1.83;;
51006;SDS011;37034;47.886;-3.904;2022-10-12T14:55:20;10.65;;;1.55;;
51006;SDS011;37034;47.886;-3.904;2022-10-12T14:57:48;10.10;;;1.95;;
51006;SDS011;37034;47.886;-3.904;2022-10-12T15:00:14;7.43;;;1.48;;
51006;SDS011;37034;47.886;-3.904;2022-10-12T15:02:45;8.55;;;1.95;;
51006;SDS011;37034;47.886;-3.904;2022-10-12T15:07:38;10.85;;;1.92;;
51006;SDS011;37034;47.886;-3.904;2022-10-12T15:10:04;10.68;;;1.50;;
51006;SDS011;37034;47.886;-3.904;2022-10-12T15:12:30;9.18;;;1.95;;
51006;SDS011;37034;47.886;-3.904;2022-10-12T15:14:58;9.10;;;1.88;;
51006;SDS011;37034;47.886;-3.904;2022-10-12T15:17:25;12.63;;;1.50;;
51006;SDS011;37034;47.886;-3.904;2022-10-12T15:19:51;12.77;;;2.33;;
51006;SDS011;37034;47.886;-3.904;2022-10-12T15:22:18;11.73;;;2.08;;
51006;SDS011;37034;47.886;-3.904;2022-10-12T15:24:46;9.57;;;1.80;;
51006;SDS011;37034;47.886;-3.904;2022-10-12T15:27:13;8.35;;;1.83;;
51006;SDS011;37034;47.886;-3.904;2022-10-12T15:29:38;8.15;;;1.48;;
51006;SDS011;37034;47.886;-3.904;2022-10-12T15:32:05;11.20;;;2.00;;
51006;SDS011;37034;47.886;-3.904;2022-10-12T15:34:31;9.93;;;2.05;;
51006;SDS011;37034;47.886;-3.904;2022-10-12T15:36:57;8.90;;;1.55;;
51006;SDS011;37034;47.886;-3.904;2022-10-12T15:39:23;12.88;;;1.70;;
51006;SDS011;37034;47.886;-3.904;2022-10-12T15:41:49;12.13;;;2.15;;
51006;SDS011;37034;47.886;-3.904;2022-10-12T15:44:15;13.20;;;1.65;;
51006;SDS011;37034;47.886;-3.904;2022-10-12T15:46:42;11.93;;;1.65;;
51006;SDS011;37034;47.886;-3.904;2022-10-12T15:49:08;9.18;;;1.65;;
51006;SDS011;37034;47.886;-3.904;2022-10-12T15:51:38;9.32;;;1.50;;
51006;SDS011;37034;47.886;-3.904;2022-10-12T15:54:08;13.32;;;2.13;;
51006;SDS011;37034;47.886;-3.904;2022-10-12T15:56:34;9.98;;;1.50;;
51006;SDS011;37034;47.886;-3.904;2022-10-12T15:59:00;10.07;;;1.40;;
51006;SDS011;37034;47.886;-3.904;2022-10-12T16:01:26;10.32;;;1.30;;
51006;SDS011;37034;47.886;-3.904;2022-10-12T16:03:52;9.13;;;1.67;;
51006;SDS011;37034;47.886;-3.904;2022-10-12T16:06:17;14.10;;;2.20;;
51006;SDS011;37034;47.886;-3.904;2022-10-12T16:08:43;12.48;;;1.77;;
51006;SDS011;37034;47.886;-3.904;2022-10-12T16:11:10;9.63;;;1.88;;
51006;SDS011;37034;47.886;-3.904;2022-10-12T16:13:37;10.20;;;1.90;;
51006;SDS011;37034;47.886;-3.904;2022-10-12T16:16:03;11.40;;;2.08;;
51006;SDS011;37034;47.886;-3.904;2022-10-12T16:18:29;14.18;;;2.03;;
51006;SDS011;37034;47.886;-3.904;2022-10-12T16:20:55;9.98;;;1.52;;
51006;SDS011;37034;47.886;-3.904;2022-10-12T16:23:22;9.47;;;1.90;;
51006;SDS011;37034;47.886;-3.904;2022-10-12T16:25:52;7.93;;;1.73;;
51006;SDS011;37034;47.886;-3.904;2022-10-12T16:28:19;10.45;;;1.40;;
51006;SDS011;37034;47.886;-3.904;2022-10-12T16:30:45;9.30;;;1.63;;
51006;SDS011;37034;47.886;-3.904;2022-10-12T16:33:11;12.38;;;1.58;;
51006;SDS011;37034;47.886;-3.904;2022-10-12T16:35:40;10.15;;;2.17;;
51006;SDS011;37034;47.886;-3.904;2022-10-12T16:38:05;12.55;;;2.28;;
51006;SDS011;37034;47.886;-3.904;2022-10-12T16:40:33;10.40;;;1.40;;
51006;SDS011;37034;47.886;-3.904;2022-10-12T16:42:59;9.43;;;1.40;;